createdAt,value
2018-06-16T00:01:32.641Z,15.18
2018-06-16T00:04:01.836Z,15.08
2018-06-16T00:06:30.782Z,14.93
2018-06-16T00:08:59.854Z,14.07
2018-06-16T00:11:28.531Z,14.15
2018-06-16T00:13:57.706Z,14.33
2018-06-16T00:16:26.690Z,13.80
2018-06-16T00:18:55.761Z,13.75
2018-06-16T00:21:24.510Z,13.38
2018-06-16T00:23:53.488Z,13.15
2018-06-16T00:26:21.894Z,11.95
2018-06-16T00:28:50.233Z,13.03
2018-06-16T00:31:18.590Z,13.35
2018-06-16T00:33:47.351Z,13.73
2018-06-16T00:36:16.295Z,13.55
2018-06-16T00:38:45.216Z,12.70
2018-06-16T00:41:14.266Z,12.73
2018-06-16T00:43:42.878Z,12.63
2018-06-16T00:46:12.634Z,12.37
2018-06-16T00:48:41.073Z,14.80
2018-06-16T00:51:09.752Z,14.40
2018-06-16T00:53:38.217Z,15.43
2018-06-16T00:56:06.627Z,17.77
2018-06-16T00:58:35.100Z,18.47
2018-06-16T01:01:03.587Z,20.27
2018-06-16T01:03:31.936Z,21.40
2018-06-16T01:06:00.335Z,23.53
2018-06-16T01:08:28.768Z,25.70
2018-06-16T01:10:57.353Z,29.67
2018-06-16T01:13:25.826Z,30.70
2018-06-16T01:15:54.223Z,31.37
2018-06-16T01:18:22.839Z,32.97
2018-06-16T01:20:51.098Z,33.93
2018-06-16T01:23:19.371Z,34.13
2018-06-16T01:25:47.670Z,34.63
2018-06-16T01:28:15.952Z,31.90
2018-06-16T01:30:44.214Z,31.23
2018-06-16T01:33:12.461Z,31.80
2018-06-16T01:35:40.703Z,33.00
2018-06-16T01:38:08.967Z,34.40
2018-06-16T01:40:37.264Z,33.47
2018-06-16T01:43:05.554Z,30.17
2018-06-16T01:45:33.808Z,30.20
2018-06-16T01:48:02.073Z,31.00
2018-06-16T01:50:30.350Z,28.97
2018-06-16T01:52:58.658Z,28.57
2018-06-16T01:55:26.984Z,29.33
2018-06-16T01:57:55.375Z,30.00
2018-06-16T02:00:23.626Z,28.50
2018-06-16T02:02:51.938Z,30.90
2018-06-16T02:05:20.262Z,28.50
2018-06-16T02:07:48.580Z,30.83
2018-06-16T02:10:16.850Z,29.23
2018-06-16T02:12:45.193Z,32.00
2018-06-16T02:15:13.509Z,28.87
2018-06-16T02:17:41.918Z,28.13
2018-06-16T02:20:10.238Z,27.57
2018-06-16T02:22:38.522Z,27.33
2018-06-16T02:25:07.901Z,27.70
2018-06-16T02:27:36.236Z,27.63
2018-06-16T02:30:04.561Z,26.43
2018-06-16T02:32:32.975Z,26.37
2018-06-16T02:35:01.377Z,26.20
2018-06-16T02:37:29.743Z,24.60
2018-06-16T02:39:58.083Z,27.10
2018-06-16T02:42:26.382Z,25.80
2018-06-16T02:44:54.710Z,26.63
2018-06-16T02:47:22.959Z,26.23
2018-06-16T02:49:51.312Z,24.00
2018-06-16T02:52:19.735Z,26.30
2018-06-16T02:54:48.091Z,24.77
2018-06-16T02:57:16.682Z,24.00
2018-06-16T02:59:45.010Z,24.43
2018-06-16T03:02:13.464Z,23.90
2018-06-16T03:04:41.871Z,23.60
2018-06-16T03:07:10.164Z,20.30
2018-06-16T03:09:38.577Z,20.80
2018-06-16T03:12:06.991Z,21.67
2018-06-16T03:14:35.571Z,22.40
2018-06-16T03:17:03.962Z,20.83
2018-06-16T03:19:32.310Z,19.57
2018-06-16T03:22:00.856Z,19.77
2018-06-16T03:24:29.248Z,20.00
2018-06-16T03:26:57.545Z,19.13
2018-06-16T03:29:26.044Z,19.07
2018-06-16T03:31:54.427Z,19.50
2018-06-16T03:34:22.906Z,18.03
2018-06-16T03:36:51.247Z,18.13
2018-06-16T03:39:19.570Z,18.80
2018-06-16T03:41:48.340Z,18.07
2018-06-16T03:44:16.697Z,18.37
2018-06-16T03:46:46.236Z,18.30
2018-06-16T03:49:15.803Z,19.40
2018-06-16T03:51:44.184Z,19.93
2018-06-16T03:54:12.429Z,19.50
2018-06-16T03:56:40.680Z,20.37
2018-06-16T03:59:08.974Z,19.20
2018-06-16T04:01:37.806Z,16.77
2018-06-16T04:04:06.351Z,16.50
2018-06-16T04:06:34.698Z,17.37
2018-06-16T04:09:05.008Z,17.77
2018-06-16T04:11:33.472Z,16.70
2018-06-16T04:14:01.759Z,16.97
2018-06-16T04:16:30.200Z,15.03
2018-06-16T04:18:58.529Z,15.03
2018-06-16T04:21:27.015Z,14.33
2018-06-16T04:23:55.373Z,13.13
2018-06-16T04:26:23.828Z,13.03
2018-06-16T04:28:52.429Z,12.87
2018-06-16T04:31:20.702Z,11.67
2018-06-16T04:33:48.994Z,12.00
2018-06-16T04:36:17.256Z,11.93
2018-06-16T04:38:45.543Z,10.47
2018-06-16T04:41:13.813Z,8.23
2018-06-16T04:43:42.103Z,8.47
2018-06-16T04:46:10.658Z,8.10
2018-06-16T04:48:38.931Z,8.10
2018-06-16T04:51:07.177Z,7.23
2018-06-16T04:53:35.501Z,7.90
2018-06-16T04:56:03.818Z,8.90
2018-06-16T04:58:32.244Z,10.30
2018-06-16T05:01:00.537Z,10.40
2018-06-16T05:03:28.804Z,9.93
2018-06-16T05:05:57.060Z,10.30
2018-06-16T05:08:25.367Z,10.50
2018-06-16T05:10:53.627Z,10.60
2018-06-16T05:13:22.480Z,10.43
2018-06-16T05:15:50.735Z,9.73
2018-06-16T05:18:19.576Z,10.40
2018-06-16T05:20:48.176Z,9.45
2018-06-16T05:23:26.620Z,9.63
2018-06-16T05:25:59.792Z,9.43
2018-06-16T05:28:32.588Z,9.93
2018-06-16T05:31:01.511Z,9.53
2018-06-16T05:33:30.350Z,9.30
2018-06-16T05:35:58.661Z,9.25
2018-06-16T05:38:26.962Z,9.70
2018-06-16T05:40:55.986Z,8.25
2018-06-16T05:43:24.807Z,8.53
2018-06-16T05:45:53.690Z,9.33
2018-06-16T05:48:22.127Z,8.10
2018-06-16T05:50:51.004Z,8.50
2018-06-16T05:53:19.861Z,8.65
2018-06-16T05:55:48.891Z,6.97
2018-06-16T05:58:17.709Z,7.50
2018-06-16T06:00:46.585Z,6.80
2018-06-16T06:03:15.511Z,7.37
2018-06-16T06:05:44.121Z,7.20
2018-06-16T06:08:13.043Z,6.28
2018-06-16T06:10:42.009Z,6.42
2018-06-16T06:13:10.864Z,6.40
2018-06-16T06:15:39.834Z,7.60
2018-06-16T06:18:18.179Z,6.60
2018-06-16T06:20:47.115Z,6.05
2018-06-16T06:23:15.998Z,6.80
2018-06-16T06:25:47.941Z,6.97
2018-06-16T06:28:16.773Z,6.70
2018-06-16T06:30:46.053Z,6.45
2018-06-16T06:33:14.977Z,6.37
2018-06-16T06:35:43.849Z,6.35
2018-06-16T06:38:12.725Z,6.10
2018-06-16T06:40:41.654Z,6.00
2018-06-16T06:43:10.308Z,5.62
2018-06-16T06:45:39.208Z,6.08
2018-06-16T06:48:08.123Z,5.47
2018-06-16T06:50:37.181Z,5.33
2018-06-16T06:53:06.113Z,5.12
2018-06-16T06:55:35.051Z,5.72
2018-06-16T06:58:03.936Z,5.70
2018-06-16T07:00:32.627Z,5.28
2018-06-16T07:03:01.511Z,5.12
2018-06-16T07:05:30.115Z,5.50
2018-06-16T07:07:59.034Z,4.75
2018-06-16T07:10:27.929Z,4.50
2018-06-16T07:12:56.832Z,4.75
2018-06-16T07:15:25.732Z,4.90
2018-06-16T07:17:54.649Z,4.97
2018-06-16T07:20:23.547Z,4.55
2018-06-16T07:22:52.597Z,4.53
2018-06-16T07:25:21.522Z,5.05
2018-06-16T07:27:50.423Z,4.50
2018-06-16T07:30:19.431Z,4.75
2018-06-16T07:32:48.408Z,4.17
2018-06-16T07:35:17.467Z,4.25
2018-06-16T07:37:46.414Z,4.22
2018-06-16T07:40:15.415Z,4.08
2018-06-16T07:42:44.431Z,4.08
2018-06-16T07:45:13.543Z,4.65
2018-06-16T07:47:42.483Z,4.12
2018-06-16T07:50:11.750Z,3.15
2018-06-16T07:52:40.791Z,4.35
2018-06-16T07:55:09.719Z,4.45
2018-06-16T07:57:38.681Z,3.83
2018-06-16T08:00:07.593Z,4.08
2018-06-16T08:02:36.477Z,4.00
2018-06-16T08:05:05.173Z,3.90
2018-06-16T08:07:34.419Z,3.80
2018-06-16T08:10:03.358Z,3.75
2018-06-16T08:12:32.224Z,4.10
2018-06-16T08:15:01.335Z,3.85
2018-06-16T08:17:30.264Z,4.20
2018-06-16T08:19:59.168Z,3.90
2018-06-16T08:22:28.039Z,3.92
2018-06-16T08:24:56.902Z,3.87
2018-06-16T08:27:25.759Z,3.90
2018-06-16T08:29:54.713Z,3.42
2018-06-16T08:32:23.704Z,3.58
2018-06-16T08:34:52.692Z,4.10
2018-06-16T08:37:21.750Z,3.30
2018-06-16T08:39:50.674Z,3.60
2018-06-16T08:42:19.645Z,3.70
2018-06-16T08:44:50.800Z,3.83
2018-06-16T08:47:19.736Z,3.20
2018-06-16T08:49:48.773Z,3.80
2018-06-16T08:52:17.703Z,2.80
2018-06-16T08:54:47.796Z,2.72
2018-06-16T08:57:17.055Z,2.52
2018-06-16T08:59:45.703Z,2.47
2018-06-16T09:02:14.617Z,2.02
2018-06-16T09:04:43.242Z,2.20
2018-06-16T09:07:12.188Z,2.15
2018-06-16T09:09:41.095Z,2.58
2018-06-16T09:12:40.772Z,2.70
2018-06-16T09:15:09.717Z,2.80
2018-06-16T09:17:38.706Z,2.20
2018-06-16T09:20:07.630Z,2.80
2018-06-16T09:22:36.554Z,2.33
2018-06-16T09:25:05.708Z,2.45
2018-06-16T09:27:34.613Z,2.50
2018-06-16T09:30:03.651Z,2.52
2018-06-16T09:32:32.544Z,2.92
2018-06-16T09:35:01.498Z,2.58
2018-06-16T09:37:30.475Z,4.85
2018-06-16T09:39:59.337Z,3.72
2018-06-16T09:42:28.288Z,3.05
2018-06-16T09:44:57.383Z,2.90
2018-06-16T09:47:26.321Z,2.87
2018-06-16T09:49:55.211Z,2.50
2018-06-16T09:52:24.223Z,2.77
2018-06-16T09:54:53.082Z,2.42
2018-06-16T09:57:21.915Z,2.85
2018-06-16T09:59:50.848Z,2.90
2018-06-16T10:02:19.699Z,3.02
2018-06-16T10:04:48.300Z,3.47
2018-06-16T10:07:17.688Z,3.10
2018-06-16T10:09:46.660Z,3.65
2018-06-16T10:12:15.598Z,3.55
2018-06-16T10:14:44.585Z,3.80
2018-06-16T10:17:13.444Z,3.77
2018-06-16T10:19:42.407Z,4.12
2018-06-16T10:22:11.235Z,4.40
2018-06-16T10:24:40.121Z,7.22
2018-06-16T10:27:09.007Z,5.28
2018-06-16T10:29:37.870Z,5.03
2018-06-16T10:32:06.720Z,4.90
2018-06-16T10:34:35.538Z,4.85
2018-06-16T10:37:04.442Z,5.12
2018-06-16T10:39:33.294Z,5.75
2018-06-16T10:42:02.173Z,6.03
2018-06-16T10:44:31.038Z,6.08
2018-06-16T10:46:59.927Z,7.10
2018-06-16T10:49:28.853Z,6.58
2018-06-16T10:51:57.693Z,7.75
2018-06-16T10:54:26.646Z,8.85
2018-06-16T10:56:55.528Z,8.48
2018-06-16T10:59:24.372Z,8.60
2018-06-16T11:01:53.216Z,9.38
2018-06-16T11:04:21.756Z,8.50
2018-06-16T11:06:50.659Z,9.55
2018-06-16T11:09:19.548Z,9.45
2018-06-16T11:11:48.569Z,10.23
2018-06-16T11:14:17.444Z,9.35
2018-06-16T11:16:46.401Z,9.20
2018-06-16T11:19:15.251Z,9.48
2018-06-16T11:21:44.102Z,10.08
2018-06-16T11:24:12.987Z,10.10
2018-06-16T11:26:41.858Z,9.83
2018-06-16T11:29:10.730Z,10.25
2018-06-16T11:31:39.572Z,11.90
2018-06-16T11:34:08.496Z,11.50
2018-06-16T11:36:37.809Z,10.23
2018-06-16T11:39:08.701Z,10.95
2018-06-16T11:41:37.574Z,10.98
2018-06-16T11:44:06.423Z,11.97
2018-06-16T11:46:35.371Z,11.95
2018-06-16T11:49:04.501Z,11.12
2018-06-16T11:51:33.540Z,12.20
2018-06-16T11:54:02.408Z,13.40
2018-06-16T11:56:31.302Z,13.15
2018-06-16T11:59:00.177Z,13.72
2018-06-16T12:01:29.016Z,13.60
2018-06-16T12:03:57.980Z,14.30
2018-06-16T12:06:26.821Z,13.55
2018-06-16T12:08:55.690Z,13.88
2018-06-16T12:11:24.545Z,13.13
2018-06-16T12:13:53.445Z,13.98
2018-06-16T12:16:22.318Z,14.75
2018-06-16T12:18:51.157Z,16.30
2018-06-16T12:21:20.033Z,17.35
2018-06-16T12:23:48.870Z,17.07
2018-06-16T12:26:17.715Z,17.05
2018-06-16T12:28:46.764Z,16.15
2018-06-16T12:31:15.590Z,16.70
2018-06-16T12:33:44.455Z,17.23
2018-06-16T12:36:13.297Z,16.37
2018-06-16T12:38:42.158Z,16.97
2018-06-16T12:41:11.076Z,15.70
2018-06-16T12:43:39.970Z,15.93
2018-06-16T12:46:08.926Z,16.90
2018-06-16T12:48:37.794Z,17.07
2018-06-16T12:51:06.628Z,17.17
2018-06-16T12:53:35.772Z,13.80
2018-06-16T12:56:04.685Z,14.28
2018-06-16T12:58:33.552Z,5.80
2018-06-16T13:01:02.435Z,4.92
2018-06-16T13:03:30.719Z,5.23
2018-06-16T13:06:00.146Z,4.47
2018-06-16T13:08:28.982Z,4.33
2018-06-16T13:10:57.824Z,4.75
2018-06-16T13:13:26.678Z,4.78
2018-06-16T13:15:55.592Z,4.97
2018-06-16T13:18:24.440Z,4.83
2018-06-16T13:20:53.287Z,4.20
2018-06-16T13:23:22.507Z,4.30
2018-06-16T13:25:51.384Z,3.80
2018-06-16T13:28:20.223Z,3.92
2018-06-16T13:30:49.095Z,3.72
2018-06-16T13:33:17.974Z,3.52
2018-06-16T13:35:46.850Z,2.60
2018-06-16T13:38:15.947Z,2.95
2018-06-16T13:40:48.882Z,2.75
2018-06-16T13:43:17.807Z,2.37
2018-06-16T13:45:46.686Z,2.10
2018-06-16T13:48:15.600Z,2.45
2018-06-16T13:50:44.484Z,2.40
2018-06-16T13:53:16.077Z,3.00
2018-06-16T13:55:46.111Z,2.45
2018-06-16T13:58:18.372Z,2.50
2018-06-16T14:00:50.190Z,2.67
2018-06-16T14:03:19.795Z,2.80
2018-06-16T14:05:49.144Z,2.70
2018-06-16T14:08:21.185Z,2.55
2018-06-16T14:10:51.255Z,2.75
2018-06-16T14:13:20.146Z,2.70
2018-06-16T14:15:48.750Z,2.65
2018-06-16T14:18:18.603Z,1.92
2018-06-16T14:20:47.474Z,2.30
2018-06-16T14:23:18.503Z,2.10
2018-06-16T14:25:47.188Z,2.20
2018-06-16T14:28:16.289Z,2.12
2018-06-16T14:30:45.678Z,2.08
2018-06-16T14:33:15.056Z,2.67
2018-06-16T14:35:45.000Z,2.70
2018-06-16T14:38:14.120Z,2.75
2018-06-16T14:40:43.013Z,2.70
2018-06-16T14:43:12.007Z,3.25
2018-06-16T14:45:41.492Z,2.40
2018-06-16T14:48:10.369Z,2.87
2018-06-16T14:50:40.799Z,2.22
2018-06-16T14:53:11.624Z,2.42
2018-06-16T14:55:40.845Z,2.62
2018-06-16T14:58:13.745Z,2.80
2018-06-16T15:00:44.728Z,2.60
2018-06-16T15:03:18.524Z,2.50
2018-06-16T15:05:48.136Z,2.50
2018-06-16T15:08:16.809Z,2.52
2018-06-16T15:10:47.644Z,2.50
2018-06-16T15:13:17.795Z,2.62
2018-06-16T15:15:50.238Z,3.90
2018-06-16T15:18:21.010Z,2.65
2018-06-16T15:20:49.995Z,2.58
2018-06-16T15:23:20.072Z,2.25
2018-06-16T15:25:56.553Z,2.22
2018-06-16T15:28:27.677Z,2.10
2018-06-16T15:31:01.863Z,1.95
2018-06-16T15:33:35.110Z,2.10
2018-06-16T15:36:06.144Z,2.00
2018-06-16T15:38:36.616Z,1.90
2018-06-16T15:41:07.665Z,1.67
2018-06-16T15:43:38.340Z,2.10
2018-06-16T15:46:09.127Z,1.60
2018-06-16T15:48:44.327Z,1.50
2018-06-16T15:51:18.658Z,1.70
2018-06-16T15:53:49.156Z,1.75
2018-06-16T15:56:18.047Z,1.87
2018-06-16T15:58:50.582Z,1.80
2018-06-16T16:01:20.942Z,2.00
2018-06-16T16:03:52.920Z,2.00
2018-06-16T16:06:24.588Z,1.92
2018-06-16T16:08:56.113Z,1.77
2018-06-16T16:11:31.057Z,1.80
2018-06-16T16:14:02.205Z,1.42
2018-06-16T16:16:33.801Z,1.30
2018-06-16T16:19:12.893Z,1.22
2018-06-16T16:21:44.659Z,1.22
2018-06-16T16:24:14.165Z,1.22
2018-06-16T16:26:44.547Z,1.12
2018-06-16T16:29:13.477Z,1.12
2018-06-16T16:31:44.213Z,1.05
2018-06-16T16:34:13.946Z,1.20
2018-06-16T16:36:56.556Z,0.95
2018-06-16T16:39:28.994Z,0.88
2018-06-16T16:41:57.920Z,1.17
2018-06-16T16:44:28.987Z,0.70
2018-06-16T16:47:01.290Z,0.93
2018-06-16T16:49:39.874Z,1.00
2018-06-16T16:52:08.816Z,1.10
2018-06-16T16:54:40.311Z,1.30
2018-06-16T16:57:09.354Z,1.22
2018-06-16T16:59:40.729Z,1.30
2018-06-16T17:02:12.667Z,1.10
2018-06-16T17:04:47.049Z,1.40
2018-06-16T17:07:15.621Z,1.20
2018-06-16T17:09:44.386Z,1.30
2018-06-16T17:12:15.019Z,1.32
2018-06-16T17:14:46.181Z,1.50
2018-06-16T17:17:17.201Z,1.75
2018-06-16T17:19:46.319Z,1.52
2018-06-16T17:24:53.960Z,1.50
2018-06-16T17:27:22.765Z,1.70
2018-06-16T17:29:53.762Z,1.12
2018-06-16T17:32:25.257Z,1.35
2018-06-16T17:34:55.639Z,1.25
2018-06-16T17:37:34.558Z,1.22
2018-06-16T17:40:12.341Z,1.67
2018-06-16T17:42:41.248Z,1.12
2018-06-16T17:45:24.101Z,1.75
2018-06-16T17:47:55.856Z,1.55
2018-06-16T17:50:25.799Z,1.70
2018-06-16T17:53:01.075Z,1.10
2018-06-16T17:55:34.478Z,1.20
2018-06-16T17:58:08.880Z,1.47
2018-06-16T18:00:38.215Z,1.60
2018-06-16T18:03:09.595Z,1.45
2018-06-16T18:05:44.387Z,1.43
2018-06-16T18:08:16.211Z,1.37
2018-06-16T18:10:52.545Z,1.40
2018-06-16T18:13:22.379Z,1.50
2018-06-16T18:15:54.105Z,1.52
2018-06-16T18:18:31.296Z,1.70
2018-06-16T18:21:00.536Z,1.40
2018-06-16T18:23:31.168Z,1.67
2018-06-16T18:26:12.502Z,1.85
2018-06-16T18:28:42.269Z,1.80
2018-06-16T18:31:12.734Z,1.98
2018-06-16T18:33:42.311Z,1.80
2018-06-16T18:36:12.785Z,1.20
2018-06-16T18:38:46.857Z,1.55
2018-06-16T18:41:15.891Z,1.90
2018-06-16T18:43:50.195Z,1.27
2018-06-16T18:46:19.744Z,1.32
2018-06-16T18:48:50.703Z,1.60
2018-06-16T18:51:20.305Z,1.50
2018-06-16T18:53:49.225Z,1.65
2018-06-16T18:56:18.173Z,1.82
2018-06-16T18:58:46.511Z,1.50
2018-06-16T19:01:15.522Z,1.45
2018-06-16T19:03:43.888Z,1.63
2018-06-16T19:06:12.604Z,2.08
2018-06-16T19:08:41.167Z,2.07
2018-06-16T19:11:09.609Z,1.73
2018-06-16T19:13:38.058Z,1.53
2018-06-16T19:16:06.476Z,1.70
2018-06-16T19:18:35.598Z,1.50
2018-06-16T19:21:03.960Z,1.90
2018-06-16T19:23:35.688Z,1.80
2018-06-16T19:26:04.250Z,1.80
2018-06-16T19:28:32.579Z,1.77
2018-06-16T19:31:01.159Z,1.90
2018-06-16T19:33:29.655Z,1.90
2018-06-16T19:35:58.387Z,1.90
2018-06-16T19:38:26.682Z,2.23
2018-06-16T19:40:55.114Z,2.37
2018-06-16T19:43:23.826Z,1.70
2018-06-16T19:45:52.296Z,1.90
2018-06-16T19:48:20.891Z,1.80
2018-06-16T19:57:34.232Z,1.40
2018-06-16T20:00:02.684Z,1.80
2018-06-16T20:02:31.078Z,1.70
2018-06-16T20:05:00.308Z,1.87
2018-06-16T20:07:28.909Z,1.50
2018-06-16T20:09:57.782Z,1.67
2018-06-16T20:12:26.252Z,1.53
2018-06-16T20:14:54.583Z,1.43
2018-06-16T20:17:22.955Z,1.63
2018-06-16T20:19:51.463Z,2.10
2018-06-16T20:22:19.719Z,1.80
2018-06-16T20:24:48.100Z,1.90
2018-06-16T20:27:16.407Z,1.63
2018-06-16T20:29:44.754Z,1.93
2018-06-16T20:32:13.145Z,2.10
2018-06-16T20:34:41.438Z,1.93
2018-06-16T20:37:10.494Z,1.80
2018-06-16T20:39:38.784Z,2.80
2018-06-16T20:42:07.172Z,1.80
2018-06-16T20:44:36.243Z,2.03
2018-06-16T20:47:04.639Z,1.87
2018-06-16T20:49:33.047Z,2.03
2018-06-16T20:52:01.351Z,2.13
2018-06-16T20:54:29.633Z,2.03
2018-06-16T20:56:57.960Z,1.50
2018-06-16T20:59:26.259Z,1.67
2018-06-16T21:01:54.598Z,1.90
2018-06-16T21:04:23.260Z,1.90
2018-06-16T21:06:51.549Z,2.57
2018-06-16T21:09:19.580Z,2.07
2018-06-16T21:11:48.236Z,2.60
2018-06-16T21:14:16.574Z,2.50
2018-06-16T21:16:44.946Z,2.23
2018-06-16T21:19:13.555Z,2.73
2018-06-16T21:21:42.302Z,2.30
2018-06-16T21:24:11.017Z,2.60
2018-06-16T21:26:39.697Z,3.47
2018-06-16T21:29:07.954Z,2.80
2018-06-16T21:31:36.640Z,2.67
2018-06-16T21:34:05.713Z,2.70
2018-06-16T21:36:34.128Z,2.63
2018-06-16T21:39:02.738Z,3.03
2018-06-16T21:41:31.162Z,3.57
2018-06-16T21:43:59.531Z,2.93
2018-06-16T21:46:27.956Z,2.83
2018-06-16T21:48:56.291Z,2.83
2018-06-16T21:51:25.863Z,2.80
2018-06-16T21:53:54.153Z,2.60
2018-06-16T21:56:23.305Z,2.90
2018-06-16T21:58:51.766Z,2.63
2018-06-16T22:01:20.130Z,2.20
2018-06-16T22:03:48.535Z,2.50
2018-06-16T22:06:17.202Z,2.57
2018-06-16T22:08:45.485Z,3.03
2018-06-16T22:11:13.815Z,2.43
2018-06-16T22:13:42.120Z,2.33
2018-06-16T22:16:10.393Z,2.57
2018-06-16T22:18:38.704Z,2.67
2018-06-16T22:21:06.957Z,1.90
2018-06-16T22:23:35.227Z,2.10
2018-06-16T22:26:04.094Z,2.10
2018-06-16T22:28:32.373Z,2.50
2018-06-16T22:31:00.672Z,2.13
2018-06-16T22:33:29.321Z,1.97
2018-06-16T22:35:57.632Z,1.70
2018-06-16T22:38:25.935Z,2.30
2018-06-16T22:40:54.216Z,2.10
2018-06-16T22:43:22.534Z,2.43
2018-06-16T22:45:50.832Z,1.97
2018-06-16T22:48:19.164Z,2.47
2018-06-16T22:50:47.480Z,1.70
2018-06-16T22:53:15.780Z,2.13
2018-06-16T22:55:44.060Z,2.33
2018-06-16T22:58:12.359Z,1.80
2018-06-16T23:00:40.633Z,2.03
2018-06-16T23:03:09.277Z,2.10
2018-06-16T23:05:37.550Z,2.67
2018-06-16T23:08:05.833Z,2.13
2018-06-16T23:10:34.154Z,1.80
2018-06-16T23:13:02.424Z,1.80
2018-06-16T23:15:30.745Z,1.90
2018-06-16T23:17:59.033Z,1.87
2018-06-16T23:20:27.299Z,2.00
2018-06-16T23:22:55.593Z,1.70
2018-06-16T23:25:23.875Z,1.70
2018-06-16T23:27:52.208Z,2.00
2018-06-16T23:30:20.527Z,1.80
2018-06-16T23:32:48.856Z,2.10
2018-06-16T23:35:17.132Z,1.73
2018-06-16T23:37:45.467Z,2.00
2018-06-16T23:40:13.759Z,2.07
2018-06-16T23:42:42.061Z,2.07
2018-06-16T23:45:10.421Z,2.00
2018-06-16T23:47:38.738Z,2.10
2018-06-16T23:50:07.560Z,1.80
2018-06-16T23:52:36.571Z,1.90
2018-06-16T23:55:04.924Z,2.17
2018-06-16T23:57:33.264Z,1.83
